Terminal Aerodrome Forecast
Issued by NWS

Home | Current Version | Previous Version | Text Only | Print | Product List | Glossary On
Versions: 1 2 3 4 5 6 7 8 9 10 11 12 13 14 15 16 17 18 19 20
000
FTUS42 KRAH 232020 AAC
TAFINT
TAF AMD
KINT 232020Z 2320/2418 25008KT P6SM VCTS SCT040CB BKN250
      TEMPO 2320/2322 VRB20G35KT 1 1/2SM TSRA BR BKN040CB
     FM240000 25004KT P6SM SCT040 BKN150=

USA.gov is the U.S. government's official web portal to all federal, state and local government web resources and services.